sensor_id;sensor_type;location;lat;lon;timestamp;temperature;humidity
72576;DHT22;60613;48.658;2.328;2022-10-22T06:02:35;21.20;60.60
72576;DHT22;60613;48.658;2.328;2022-10-22T06:05:00;21.10;61.50
72576;DHT22;60613;48.658;2.328;2022-10-22T06:07:26;21.10;61.40
72576;DHT22;60613;48.658;2.328;2022-10-22T06:09:52;21.20;61.30
72576;DHT22;60613;48.658;2.328;2022-10-22T06:12:18;21.20;61.10
72576;DHT22;60613;48.658;2.328;2022-10-22T06:14:44;21.30;61.00
72576;DHT22;60613;48.658;2.328;2022-10-22T06:17:11;21.30;60.80
72576;DHT22;60613;48.658;2.328;2022-10-22T06:19:37;21.30;60.70
72576;DHT22;60613;48.658;2.328;2022-10-22T06:22:03;21.30;60.70
72576;DHT22;60613;48.658;2.328;2022-10-22T06:24:29;21.30;60.60
72576;DHT22;60613;48.658;2.328;2022-10-22T06:26:55;21.30;60.60
72576;DHT22;60613;48.658;2.328;2022-10-22T06:29:21;21.30;60.60
72576;DHT22;60613;48.658;2.328;2022-10-22T06:31:47;21.30;60.60
72576;DHT22;60613;48.658;2.328;2022-10-22T06:34:14;21.30;60.50
72576;DHT22;60613;48.658;2.328;2022-10-22T06:36:39;21.40;60.50
72576;DHT22;60613;48.658;2.328;2022-10-22T06:39:08;21.40;61.60
72576;DHT22;60613;48.658;2.328;2022-10-22T06:41:34;21.40;60.50
72576;DHT22;60613;48.658;2.328;2022-10-22T06:44:00;21.40;60.50
72576;DHT22;60613;48.658;2.328;2022-10-22T06:46:25;21.30;60.40
72576;DHT22;60613;48.658;2.328;2022-10-22T06:48:53;21.30;60.40
72576;DHT22;60613;48.658;2.328;2022-10-22T06:51:19;21.30;60.40
72576;DHT22;60613;48.658;2.328;2022-10-22T06:53:48;21.30;60.30
72576;DHT22;60613;48.658;2.328;2022-10-22T06:56:16;21.40;60.40
72576;DHT22;60613;48.658;2.328;2022-10-22T06:58:41;21.30;60.30
72576;DHT22;60613;48.658;2.328;2022-10-22T07:01:10;21.30;61.40
72576;DHT22;60613;48.658;2.328;2022-10-22T07:03:37;21.30;60.20
72576;DHT22;60613;48.658;2.328;2022-10-22T07:06:06;21.30;60.30
72576;DHT22;60613;48.658;2.328;2022-10-22T07:08:32;21.30;60.20
72576;DHT22;60613;48.658;2.328;2022-10-22T07:11:12;21.30;60.30
72576;DHT22;60613;48.658;2.328;2022-10-22T07:13:38;21.30;60.20
72576;DHT22;60613;48.658;2.328;2022-10-22T07:16:05;21.30;60.20
72576;DHT22;60613;48.658;2.328;2022-10-22T07:18:32;21.30;60.20
72576;DHT22;60613;48.658;2.328;2022-10-22T07:20:57;21.30;60.20
72576;DHT22;60613;48.658;2.328;2022-10-22T07:23:24;21.30;60.20
72576;DHT22;60613;48.658;2.328;2022-10-22T07:25:49;21.30;60.30
72576;DHT22;60613;48.658;2.328;2022-10-22T07:28:15;21.30;60.30
72576;DHT22;60613;48.658;2.328;2022-10-22T07:30:41;21.30;60.20
72576;DHT22;60613;48.658;2.328;2022-10-22T07:33:07;21.30;60.20
72576;DHT22;60613;48.658;2.328;2022-10-22T07:35:36;21.30;60.20
72576;DHT22;60613;48.658;2.328;2022-10-22T07:38:01;21.00;58.50
72576;DHT22;60613;48.658;2.328;2022-10-22T07:40:27;20.90;57.20
72576;DHT22;60613;48.658;2.328;2022-10-22T07:42:52;20.80;57.30
72576;DHT22;60613;48.658;2.328;2022-10-22T07:45:18;20.70;57.70
72576;DHT22;60613;48.658;2.328;2022-10-22T07:47:46;20.60;58.00
72576;DHT22;60613;48.658;2.328;2022-10-22T07:50:12;20.60;58.20
72576;DHT22;60613;48.658;2.328;2022-10-22T07:52:37;20.50;60.30
72576;DHT22;60613;48.658;2.328;2022-10-22T07:55:03;20.60;60.90
72576;DHT22;60613;48.658;2.328;2022-10-22T07:57:29;20.70;60.30
72576;DHT22;60613;48.658;2.328;2022-10-22T07:59:56;20.70;60.00
72576;DHT22;60613;48.658;2.328;2022-10-22T08:02:23;20.60;59.90
72576;DHT22;60613;48.658;2.328;2022-10-22T08:04:48;20.60;60.00
72576;DHT22;60613;48.658;2.328;2022-10-22T08:07:14;20.60;60.30
72576;DHT22;60613;48.658;2.328;2022-10-22T08:09:40;20.60;60.80
72576;DHT22;60613;48.658;2.328;2022-10-22T08:12:06;20.70;61.60
72576;DHT22;60613;48.658;2.328;2022-10-22T08:14:31;20.80;62.20
72576;DHT22;60613;48.658;2.328;2022-10-22T08:16:57;20.90;62.30
72576;DHT22;60613;48.658;2.328;2022-10-22T08:19:23;21.00;61.70
72576;DHT22;60613;48.658;2.328;2022-10-22T08:21:48;21.00;61.60
72576;DHT22;60613;48.658;2.328;2022-10-22T08:24:14;21.10;63.10
72576;DHT22;60613;48.658;2.328;2022-10-22T08:26:40;21.20;61.70
72576;DHT22;60613;48.658;2.328;2022-10-22T08:29:06;21.30;61.90
72576;DHT22;60613;48.658;2.328;2022-10-22T08:31:32;21.30;62.00
72576;DHT22;60613;48.658;2.328;2022-10-22T08:33:58;21.40;61.90
72576;DHT22;60613;48.658;2.328;2022-10-22T08:36:24;21.40;62.10
72576;DHT22;60613;48.658;2.328;2022-10-22T08:38:49;21.40;61.90
72576;DHT22;60613;48.658;2.328;2022-10-22T08:41:17;21.50;61.80
72576;DHT22;60613;48.658;2.328;2022-10-22T08:48:58;21.50;62.20
72576;DHT22;60613;48.658;2.328;2022-10-22T08:51:28;21.60;62.50
72576;DHT22;60613;48.658;2.328;2022-10-22T08:56:30;21.60;62.00
72576;DHT22;60613;48.658;2.328;2022-10-22T08:59:22;21.60;62.00
72576;DHT22;60613;48.658;2.328;2022-10-22T09:01:52;21.70;62.20
72576;DHT22;60613;48.658;2.328;2022-10-22T09:04:26;21.70;62.10
72576;DHT22;60613;48.658;2.328;2022-10-22T09:06:54;21.70;61.90
72576;DHT22;60613;48.658;2.328;2022-10-22T09:09:32;21.80;61.70
72576;DHT22;60613;48.658;2.328;2022-10-22T09:12:00;21.80;61.80
72576;DHT22;60613;48.658;2.328;2022-10-22T09:14:26;21.80;61.90
72576;DHT22;60613;48.658;2.328;2022-10-22T09:25:28;21.70;62.10
72576;DHT22;60613;48.658;2.328;2022-10-22T09:27:55;21.70;62.00
72576;DHT22;60613;48.658;2.328;2022-10-22T09:30:29;21.70;62.00
72576;DHT22;60613;48.658;2.328;2022-10-22T09:35:57;21.70;62.30
72576;DHT22;60613;48.658;2.328;2022-10-22T09:38:31;21.70;62.50
72576;DHT22;60613;48.658;2.328;2022-10-22T09:40:59;21.70;62.20
72576;DHT22;60613;48.658;2.328;2022-10-22T09:43:25;21.70;62.10
72576;DHT22;60613;48.658;2.328;2022-10-22T09:45:59;21.80;62.00
72576;DHT22;60613;48.658;2.328;2022-10-22T09:48:34;21.80;61.80
72576;DHT22;60613;48.658;2.328;2022-10-22T09:51:05;21.80;62.10
72576;DHT22;60613;48.658;2.328;2022-10-22T09:53:36;21.80;61.90
72576;DHT22;60613;48.658;2.328;2022-10-22T09:56:08;21.90;62.30
72576;DHT22;60613;48.658;2.328;2022-10-22T09:58:45;21.80;61.90
72576;DHT22;60613;48.658;2.328;2022-10-22T10:01:23;21.80;61.90
72576;DHT22;60613;48.658;2.328;2022-10-22T10:03:49;21.70;61.90
72576;DHT22;60613;48.658;2.328;2022-10-22T10:06:20;21.70;62.10
72576;DHT22;60613;48.658;2.328;2022-10-22T10:08:47;21.70;62.30
72576;DHT22;60613;48.658;2.328;2022-10-22T10:11:22;21.70;62.10
72576;DHT22;60613;48.658;2.328;2022-10-22T10:21:48;21.70;61.80
72576;DHT22;60613;48.658;2.328;2022-10-22T10:27:12;21.80;61.20
72576;DHT22;60613;48.658;2.328;2022-10-22T10:30:02;21.80;61.50
72576;DHT22;60613;48.658;2.328;2022-10-22T10:38:37;21.80;60.90
72576;DHT22;60613;48.658;2.328;2022-10-22T10:41:25;21.80;61.10
72576;DHT22;60613;48.658;2.328;2022-10-22T10:46:46;21.80;61.40
72576;DHT22;60613;48.658;2.328;2022-10-22T10:49:29;21.80;61.00
72576;DHT22;60613;48.658;2.328;2022-10-22T10:57:34;21.90;61.00
72576;DHT22;60613;48.658;2.328;2022-10-22T11:00:05;21.90;61.10
72576;DHT22;60613;48.658;2.328;2022-10-22T11:05:38;21.90;61.30
72576;DHT22;60613;48.658;2.328;2022-10-22T11:08:18;21.90;61.50
72576;DHT22;60613;48.658;2.328;2022-10-22T11:16:27;21.80;60.90
72576;DHT22;60613;48.658;2.328;2022-10-22T11:22:18;21.90;61.40
72576;DHT22;60613;48.658;2.328;2022-10-22T11:24:58;21.90;61.50
72576;DHT22;60613;48.658;2.328;2022-10-22T11:27:38;21.90;61.40
72576;DHT22;60613;48.658;2.328;2022-10-22T11:30:12;21.90;61.30
72576;DHT22;60613;48.658;2.328;2022-10-22T11:32:40;21.90;61.40
72576;DHT22;60613;48.658;2.328;2022-10-22T11:35:15;21.90;61.60
72576;DHT22;60613;48.658;2.328;2022-10-22T11:37:43;21.90;61.40
72576;DHT22;60613;48.658;2.328;2022-10-22T11:40:19;21.90;61.20
72576;DHT22;60613;48.658;2.328;2022-10-22T11:43:03;21.90;61.30
72576;DHT22;60613;48.658;2.328;2022-10-22T11:45:35;21.90;61.40
72576;DHT22;60613;48.658;2.328;2022-10-22T11:56:02;21.90;61.00
72576;DHT22;60613;48.658;2.328;2022-10-22T12:03:41;22.00;61.10
72576;DHT22;60613;48.658;2.328;2022-10-22T12:11:39;22.00;60.90
72576;DHT22;60613;48.658;2.328;2022-10-22T12:14:22;22.10;60.70
72576;DHT22;60613;48.658;2.328;2022-10-22T12:19:31;22.10;60.70
72576;DHT22;60613;48.658;2.328;2022-10-22T12:24:50;22.10;60.70
72576;DHT22;60613;48.658;2.328;2022-10-22T12:27:19;22.10;60.40
72576;DHT22;60613;48.658;2.328;2022-10-22T12:29:46;22.10;60.70
72576;DHT22;60613;48.658;2.328;2022-10-22T12:32:14;22.10;61.10
72576;DHT22;60613;48.658;2.328;2022-10-22T12:34:47;22.10;61.50
72576;DHT22;60613;48.658;2.328;2022-10-22T12:37:14;22.10;62.00
72576;DHT22;60613;48.658;2.328;2022-10-22T12:39:41;22.10;61.80
72576;DHT22;60613;48.658;2.328;2022-10-22T12:42:13;22.10;61.20
72576;DHT22;60613;48.658;2.328;2022-10-22T12:44:39;22.10;61.10
72576;DHT22;60613;48.658;2.328;2022-10-22T12:47:06;22.10;61.10
72576;DHT22;60613;48.658;2.328;2022-10-22T12:49:40;22.10;60.90
72576;DHT22;60613;48.658;2.328;2022-10-22T12:52:12;22.20;60.90
72576;DHT22;60613;48.658;2.328;2022-10-22T12:54:39;22.20;61.10
72576;DHT22;60613;48.658;2.328;2022-10-22T12:57:08;22.10;61.10
72576;DHT22;60613;48.658;2.328;2022-10-22T12:59:37;22.10;61.10
72576;DHT22;60613;48.658;2.328;2022-10-22T13:02:23;22.20;61.00
72576;DHT22;60613;48.658;2.328;2022-10-22T13:05:16;22.20;61.00
72576;DHT22;60613;48.658;2.328;2022-10-22T13:07:50;22.20;61.20
72576;DHT22;60613;48.658;2.328;2022-10-22T13:10:21;22.20;61.20
72576;DHT22;60613;48.658;2.328;2022-10-22T13:12:50;22.20;61.10
72576;DHT22;60613;48.658;2.328;2022-10-22T13:18:05;22.20;61.10
72576;DHT22;60613;48.658;2.328;2022-10-22T13:20:31;22.20;60.80
72576;DHT22;60613;48.658;2.328;2022-10-22T13:23:04;22.30;60.50
72576;DHT22;60613;48.658;2.328;2022-10-22T13:25:36;22.30;60.60
72576;DHT22;60613;48.658;2.328;2022-10-22T13:30:51;22.30;60.70
72576;DHT22;60613;48.658;2.328;2022-10-22T13:33:25;22.30;60.60
72576;DHT22;60613;48.658;2.328;2022-10-22T13:35:52;22.40;60.20
72576;DHT22;60613;48.658;2.328;2022-10-22T13:38:21;22.50;59.60
72576;DHT22;60613;48.658;2.328;2022-10-22T13:40:47;22.60;58.90
72576;DHT22;60613;48.658;2.328;2022-10-22T13:43:13;22.70;58.80
72576;DHT22;60613;48.658;2.328;2022-10-22T13:45:39;22.80;58.30
72576;DHT22;60613;48.658;2.328;2022-10-22T13:48:05;22.80;58.00
72576;DHT22;60613;48.658;2.328;2022-10-22T13:50:30;22.90;57.70
72576;DHT22;60613;48.658;2.328;2022-10-22T13:52:57;22.90;58.00
72576;DHT22;60613;48.658;2.328;2022-10-22T13:55:25;22.80;57.80
72576;DHT22;60613;48.658;2.328;2022-10-22T13:58:05;22.70;58.50
72576;DHT22;60613;48.658;2.328;2022-10-22T14:00:34;22.60;57.70
72576;DHT22;60613;48.658;2.328;2022-10-22T14:03:01;22.50;57.70
72576;DHT22;60613;48.658;2.328;2022-10-22T14:05:29;22.40;58.50
72576;DHT22;60613;48.658;2.328;2022-10-22T14:07:58;22.40;59.00
72576;DHT22;60613;48.658;2.328;2022-10-22T14:10:24;22.40;59.40
72576;DHT22;60613;48.658;2.328;2022-10-22T14:12:51;22.30;59.60
72576;DHT22;60613;48.658;2.328;2022-10-22T14:15:19;22.30;59.90
72576;DHT22;60613;48.658;2.328;2022-10-22T14:17:48;22.30;60.00
72576;DHT22;60613;48.658;2.328;2022-10-22T14:20:29;22.30;60.10
72576;DHT22;60613;48.658;2.328;2022-10-22T14:22:56;22.30;60.10
72576;DHT22;60613;48.658;2.328;2022-10-22T14:25:25;22.30;60.20
72576;DHT22;60613;48.658;2.328;2022-10-22T14:27:51;22.30;60.30
72576;DHT22;60613;48.658;2.328;2022-10-22T14:30:24;22.30;60.30
72576;DHT22;60613;48.658;2.328;2022-10-22T14:32:50;22.30;60.30
72576;DHT22;60613;48.658;2.328;2022-10-22T14:35:19;22.30;60.30
72576;DHT22;60613;48.658;2.328;2022-10-22T14:37:45;22.30;60.50
72576;DHT22;60613;48.658;2.328;2022-10-22T14:40:13;22.30;60.50
72576;DHT22;60613;48.658;2.328;2022-10-22T14:42:42;22.30;60.50
72576;DHT22;60613;48.658;2.328;2022-10-22T14:45:28;22.30;60.50
72576;DHT22;60613;48.658;2.328;2022-10-22T14:47:54;22.30;60.60
72576;DHT22;60613;48.658;2.328;2022-10-22T14:50:20;22.30;60.60
72576;DHT22;60613;48.658;2.328;2022-10-22T14:52:46;22.30;61.80
72576;DHT22;60613;48.658;2.328;2022-10-22T14:55:13;22.30;60.70
72576;DHT22;60613;48.658;2.328;2022-10-22T14:57:40;22.30;60.70
72576;DHT22;60613;48.658;2.328;2022-10-22T15:00:08;22.30;60.80
72576;DHT22;60613;48.658;2.328;2022-10-22T15:02:34;22.30;60.80
72576;DHT22;60613;48.658;2.328;2022-10-22T15:04:59;22.30;60.80
72576;DHT22;60613;48.658;2.328;2022-10-22T15:07:25;22.30;60.70
72576;DHT22;60613;48.658;2.328;2022-10-22T15:09:52;22.30;60.70
72576;DHT22;60613;48.658;2.328;2022-10-22T15:12:18;22.30;60.70
72576;DHT22;60613;48.658;2.328;2022-10-22T15:14:47;22.30;60.70
72576;DHT22;60613;48.658;2.328;2022-10-22T15:17:14;22.30;60.80
72576;DHT22;60613;48.658;2.328;2022-10-22T15:19:40;22.30;60.80
72576;DHT22;60613;48.658;2.328;2022-10-22T15:22:08;22.30;60.90
72576;DHT22;60613;48.658;2.328;2022-10-22T15:24:33;22.30;60.80
72576;DHT22;60613;48.658;2.328;2022-10-22T15:26:59;22.30;60.80
72576;DHT22;60613;48.658;2.328;2022-10-22T15:29:25;22.30;61.00
72576;DHT22;60613;48.658;2.328;2022-10-22T15:31:53;22.30;61.00
72576;DHT22;60613;48.658;2.328;2022-10-22T15:34:24;22.30;60.70
72576;DHT22;60613;48.658;2.328;2022-10-22T15:36:54;22.30;60.80
72576;DHT22;60613;48.658;2.328;2022-10-22T15:39:20;22.40;60.80
72576;DHT22;60613;48.658;2.328;2022-10-22T15:41:47;22.40;60.80
72576;DHT22;60613;48.658;2.328;2022-10-22T15:44:24;22.40;60.90
72576;DHT22;60613;48.658;2.328;2022-10-22T15:46:50;22.40;60.90
72576;DHT22;60613;48.658;2.328;2022-10-22T15:49:17;22.40;60.80
72576;DHT22;60613;48.658;2.328;2022-10-22T15:51:43;22.40;60.80
72576;DHT22;60613;48.658;2.328;2022-10-22T15:54:13;22.40;60.80
72576;DHT22;60613;48.658;2.328;2022-10-22T15:56:40;22.40;60.70
72576;DHT22;60613;48.658;2.328;2022-10-22T15:59:05;22.40;60.60
72576;DHT22;60613;48.658;2.328;2022-10-22T16:01:33;22.40;60.60
72576;DHT22;60613;48.658;2.328;2022-10-22T16:03:59;22.40;60.60
72576;DHT22;60613;48.658;2.328;2022-10-22T16:06:28;22.40;60.50
72576;DHT22;60613;48.658;2.328;2022-10-22T16:08:56;22.40;60.70
72576;DHT22;60613;48.658;2.328;2022-10-22T16:11:22;22.40;60.70
72576;DHT22;60613;48.658;2.328;2022-10-22T16:13:51;22.40;60.60
72576;DHT22;60613;48.658;2.328;2022-10-22T16:16:17;22.40;60.80
72576;DHT22;60613;48.658;2.328;2022-10-22T16:18:42;22.40;60.80
72576;DHT22;60613;48.658;2.328;2022-10-22T16:21:11;22.40;60.80
72576;DHT22;60613;48.658;2.328;2022-10-22T16:23:39;22.30;60.80
72576;DHT22;60613;48.658;2.328;2022-10-22T16:26:04;22.40;60.80
72576;DHT22;60613;48.658;2.328;2022-10-22T16:28:30;22.40;60.60
72576;DHT22;60613;48.658;2.328;2022-10-22T16:30:55;22.40;60.40
72576;DHT22;60613;48.658;2.328;2022-10-22T16:33:25;22.40;60.30
72576;DHT22;60613;48.658;2.328;2022-10-22T16:35:50;22.40;60.20
72576;DHT22;60613;48.658;2.328;2022-10-22T16:38:16;22.50;60.50
72576;DHT22;60613;48.658;2.328;2022-10-22T16:40:43;22.50;60.60
72576;DHT22;60613;48.658;2.328;2022-10-22T16:43:08;22.60;61.40
72576;DHT22;60613;48.658;2.328;2022-10-22T16:45:34;22.60;61.80
72576;DHT22;60613;48.658;2.328;2022-10-22T16:48:00;22.60;63.10
72576;DHT22;60613;48.658;2.328;2022-10-22T16:50:25;22.60;64.10
72576;DHT22;60613;48.658;2.328;2022-10-22T16:52:51;22.60;63.00
72576;DHT22;60613;48.658;2.328;2022-10-22T16:55:17;22.60;62.50
72576;DHT22;60613;48.658;2.328;2022-10-22T16:57:42;22.60;63.40
72576;DHT22;60613;48.658;2.328;2022-10-22T17:00:09;22.60;62.00
72576;DHT22;60613;48.658;2.328;2022-10-22T17:02:34;22.60;61.40
72576;DHT22;60613;48.658;2.328;2022-10-22T17:05:01;22.60;61.40
72576;DHT22;60613;48.658;2.328;2022-10-22T17:07:27;22.70;62.10
72576;DHT22;60613;48.658;2.328;2022-10-22T17:09:53;22.70;61.90
72576;DHT22;60613;48.658;2.328;2022-10-22T17:12:18;22.70;62.00
72576;DHT22;60613;48.658;2.328;2022-10-22T17:14:44;22.70;62.50
72576;DHT22;60613;48.658;2.328;2022-10-22T17:17:09;22.70;63.20
72576;DHT22;60613;48.658;2.328;2022-10-22T17:19:35;22.70;62.90
72576;DHT22;60613;48.658;2.328;2022-10-22T17:22:03;22.70;63.10
72576;DHT22;60613;48.658;2.328;2022-10-22T17:24:29;22.70;63.30
72576;DHT22;60613;48.658;2.328;2022-10-22T17:26:54;22.70;62.50
72576;DHT22;60613;48.658;2.328;2022-10-22T17:29:20;22.70;63.00
72576;DHT22;60613;48.658;2.328;2022-10-22T17:31:46;22.70;62.80
72576;DHT22;60613;48.658;2.328;2022-10-22T17:34:14;22.80;62.90
72576;DHT22;60613;48.658;2.328;2022-10-22T17:36:41;22.80;62.80
72576;DHT22;60613;48.658;2.328;2022-10-22T17:39:07;22.80;63.00
72576;DHT22;60613;48.658;2.328;2022-10-22T17:41:35;22.80;63.10
72576;DHT22;60613;48.658;2.328;2022-10-22T17:44:04;22.80;63.50
72576;DHT22;60613;48.658;2.328;2022-10-22T17:46:30;22.80;63.10
72576;DHT22;60613;48.658;2.328;2022-10-22T17:49:02;22.80;63.60
72576;DHT22;60613;48.658;2.328;2022-10-22T17:51:28;22.70;63.90
72576;DHT22;60613;48.658;2.328;2022-10-22T17:53:54;22.70;64.10
72576;DHT22;60613;48.658;2.328;2022-10-22T17:56:22;22.70;63.80
72576;DHT22;60613;48.658;2.328;2022-10-22T17:58:49;22.70;63.30
72576;DHT22;60613;48.658;2.328;2022-10-22T18:01:23;22.70;63.20
72576;DHT22;60613;48.658;2.328;2022-10-22T18:03:50;22.70;63.30
72576;DHT22;60613;48.658;2.328;2022-10-22T18:06:15;22.60;63.40
72576;DHT22;60613;48.658;2.328;2022-10-22T18:08:41;22.70;63.70
72576;DHT22;60613;48.658;2.328;2022-10-22T18:11:11;22.70;63.70
72576;DHT22;60613;48.658;2.328;2022-10-22T18:13:37;22.70;63.10
72576;DHT22;60613;48.658;2.328;2022-10-22T18:16:03;22.60;63.10
72576;DHT22;60613;48.658;2.328;2022-10-22T18:18:29;22.70;63.30
72576;DHT22;60613;48.658;2.328;2022-10-22T18:20:55;22.60;63.40
72576;DHT22;60613;48.658;2.328;2022-10-22T18:23:20;22.60;63.30
72576;DHT22;60613;48.658;2.328;2022-10-22T18:25:47;22.60;63.70
72576;DHT22;60613;48.658;2.328;2022-10-22T18:28:16;22.60;63.80
72576;DHT22;60613;48.658;2.328;2022-10-22T18:30:44;22.60;63.60
72576;DHT22;60613;48.658;2.328;2022-10-22T18:33:15;22.60;63.90
72576;DHT22;60613;48.658;2.328;2022-10-22T18:35:41;22.60;63.80
72576;DHT22;60613;48.658;2.328;2022-10-22T18:38:08;22.60;63.90
72576;DHT22;60613;48.658;2.328;2022-10-22T18:40:34;22.60;64.20
72576;DHT22;60613;48.658;2.328;2022-10-22T18:43:01;22.60;63.80
72576;DHT22;60613;48.658;2.328;2022-10-22T18:45:27;22.50;63.50
72576;DHT22;60613;48.658;2.328;2022-10-22T18:47:52;22.50;63.80
72576;DHT22;60613;48.658;2.328;2022-10-22T18:50:18;22.50;63.60
72576;DHT22;60613;48.658;2.328;2022-10-22T18:52:43;22.50;63.90
72576;DHT22;60613;48.658;2.328;2022-10-22T18:55:09;22.50;63.40
72576;DHT22;60613;48.658;2.328;2022-10-22T18:57:35;22.60;63.40
72576;DHT22;60613;48.658;2.328;2022-10-22T19:00:01;22.60;63.60
72576;DHT22;60613;48.658;2.328;2022-10-22T19:02:26;22.60;63.80
72576;DHT22;60613;48.658;2.328;2022-10-22T19:04:54;22.60;62.90
72576;DHT22;60613;48.658;2.328;2022-10-22T19:07:19;22.70;63.20
72576;DHT22;60613;48.658;2.328;2022-10-22T19:09:45;22.80;62.80
72576;DHT22;60613;48.658;2.328;2022-10-22T19:12:10;22.80;62.60
72576;DHT22;60613;48.658;2.328;2022-10-22T19:14:39;22.90;62.40
72576;DHT22;60613;48.658;2.328;2022-10-22T19:17:05;22.90;62.50
72576;DHT22;60613;48.658;2.328;2022-10-22T19:19:31;22.90;62.20
72576;DHT22;60613;48.658;2.328;2022-10-22T19:21:56;22.80;62.00
72576;DHT22;60613;48.658;2.328;2022-10-22T19:24:23;22.80;62.80
72576;DHT22;60613;48.658;2.328;2022-10-22T19:26:50;22.80;62.80
72576;DHT22;60613;48.658;2.328;2022-10-22T19:29:17;22.80;62.50
72576;DHT22;60613;48.658;2.328;2022-10-22T19:31:44;22.90;62.80
72576;DHT22;60613;48.658;2.328;2022-10-22T19:34:10;22.90;62.40
72576;DHT22;60613;48.658;2.328;2022-10-22T19:36:35;22.90;62.30
72576;DHT22;60613;48.658;2.328;2022-10-22T19:39:02;23.00;62.80
72576;DHT22;60613;48.658;2.328;2022-10-22T19:41:30;22.90;63.10
72576;DHT22;60613;48.658;2.328;2022-10-22T19:43:57;22.90;63.10
72576;DHT22;60613;48.658;2.328;2022-10-22T19:46:23;22.90;62.50
72576;DHT22;60613;48.658;2.328;2022-10-22T19:48:50;22.90;63.00
72576;DHT22;60613;48.658;2.328;2022-10-22T19:51:25;22.90;62.70
72576;DHT22;60613;48.658;2.328;2022-10-22T19:54:06;22.90;62.90
72576;DHT22;60613;48.658;2.328;2022-10-22T19:56:33;22.90;63.30
72576;DHT22;60613;48.658;2.328;2022-10-22T19:58:59;22.90;62.70
72576;DHT22;60613;48.658;2.328;2022-10-22T20:01:25;22.90;62.20
72576;DHT22;60613;48.658;2.328;2022-10-22T20:03:52;23.00;61.70
72576;DHT22;60613;48.658;2.328;2022-10-22T20:06:18;23.00;61.40
72576;DHT22;60613;48.658;2.328;2022-10-22T20:08:44;23.10;61.20
72576;DHT22;60613;48.658;2.328;2022-10-22T20:11:17;23.10;61.70
72576;DHT22;60613;48.658;2.328;2022-10-22T20:13:43;23.10;61.90
72576;DHT22;60613;48.658;2.328;2022-10-22T20:16:08;23.10;62.40
72576;DHT22;60613;48.658;2.328;2022-10-22T20:18:35;23.00;62.30
72576;DHT22;60613;48.658;2.328;2022-10-22T20:21:07;23.00;62.50
72576;DHT22;60613;48.658;2.328;2022-10-22T20:23:33;23.00;62.50
72576;DHT22;60613;48.658;2.328;2022-10-22T20:25:59;23.00;62.50
72576;DHT22;60613;48.658;2.328;2022-10-22T20:28:25;22.90;62.50
72576;DHT22;60613;48.658;2.328;2022-10-22T20:30:51;22.90;62.50
72576;DHT22;60613;48.658;2.328;2022-10-22T20:33:16;22.90;62.50
72576;DHT22;60613;48.658;2.328;2022-10-22T20:35:42;22.90;62.50
72576;DHT22;60613;48.658;2.328;2022-10-22T20:38:12;22.90;62.40
72576;DHT22;60613;48.658;2.328;2022-10-22T20:40:38;22.90;62.40
72576;DHT22;60613;48.658;2.328;2022-10-22T20:43:04;22.80;62.40
72576;DHT22;60613;48.658;2.328;2022-10-22T20:45:30;22.90;62.30
72576;DHT22;60613;48.658;2.328;2022-10-22T20:47:56;22.80;62.50
72576;DHT22;60613;48.658;2.328;2022-10-22T20:50:24;22.80;62.30
72576;DHT22;60613;48.658;2.328;2022-10-22T20:52:54;22.80;62.30
72576;DHT22;60613;48.658;2.328;2022-10-22T20:55:20;22.80;62.30
72576;DHT22;60613;48.658;2.328;2022-10-22T20:57:46;22.80;63.30
